sensor_id;sensor_type;location;lat;lon;timestamp;P1;durP1;ratioP1;P2;durP2;ratioP2
79646;SDS011;69119;41.718;21.786;2024-03-23T01:00:56;21.35;;;10.45;;
79646;SDS011;69119;41.718;21.786;2024-03-23T01:03:22;23.58;;;10.68;;
79646;SDS011;69119;41.718;21.786;2024-03-23T01:05:48;16.77;;;11.18;;
79646;SDS011;69119;41.718;21.786;2024-03-23T01:08:14;19.45;;;11.98;;
79646;SDS011;69119;41.718;21.786;2024-03-23T01:10:40;22.63;;;11.43;;
79646;SDS011;69119;41.718;21.786;2024-03-23T01:13:06;21.73;;;11.02;;
79646;SDS011;69119;41.718;21.786;2024-03-23T01:15:32;18.63;;;11.27;;
79646;SDS011;69119;41.718;21.786;2024-03-23T01:17:59;16.15;;;9.63;;
79646;SDS011;69119;41.718;21.786;2024-03-23T01:20:25;20.27;;;12.40;;
79646;SDS011;69119;41.718;21.786;2024-03-23T01:22:52;21.27;;;12.63;;
79646;SDS011;69119;41.718;21.786;2024-03-23T01:25:18;20.13;;;12.27;;
79646;SDS011;69119;41.718;21.786;2024-03-23T01:27:44;19.02;;;11.38;;
79646;SDS011;69119;41.718;21.786;2024-03-23T01:30:10;18.65;;;10.90;;
79646;SDS011;69119;41.718;21.786;2024-03-23T01:32:39;18.55;;;10.10;;
79646;SDS011;69119;41.718;21.786;2024-03-23T01:35:05;20.42;;;10.85;;
79646;SDS011;69119;41.718;21.786;2024-03-23T01:37:31;20.23;;;11.43;;
79646;SDS011;69119;41.718;21.786;2024-03-23T01:39:57;18.15;;;11.23;;
79646;SDS011;69119;41.718;21.786;2024-03-23T01:42:23;21.08;;;11.43;;
79646;SDS011;69119;41.718;21.786;2024-03-23T01:44:49;18.48;;;11.38;;
79646;SDS011;69119;41.718;21.786;2024-03-23T01:47:15;18.30;;;10.20;;
79646;SDS011;69119;41.718;21.786;2024-03-23T01:49:42;20.88;;;10.63;;
79646;SDS011;69119;41.718;21.786;2024-03-23T01:52:08;14.18;;;7.97;;
79646;SDS011;69119;41.718;21.786;2024-03-23T01:54:35;17.83;;;10.15;;
79646;SDS011;69119;41.718;21.786;2024-03-23T01:57:01;19.50;;;12.00;;
79646;SDS011;69119;41.718;21.786;2024-03-23T01:59:27;17.15;;;10.85;;
79646;SDS011;69119;41.718;21.786;2024-03-23T02:01:53;15.93;;;11.25;;
79646;SDS011;69119;41.718;21.786;2024-03-23T02:04:19;17.30;;;10.15;;
79646;SDS011;69119;41.718;21.786;2024-03-23T02:06:46;16.17;;;9.88;;
79646;SDS011;69119;41.718;21.786;2024-03-23T02:09:12;18.00;;;10.32;;
79646;SDS011;69119;41.718;21.786;2024-03-23T02:11:38;20.05;;;10.25;;
79646;SDS011;69119;41.718;21.786;2024-03-23T02:14:05;19.80;;;10.50;;
79646;SDS011;69119;41.718;21.786;2024-03-23T02:16:33;19.70;;;10.32;;
79646;SDS011;69119;41.718;21.786;2024-03-23T02:18:59;18.23;;;11.77;;
79646;SDS011;69119;41.718;21.786;2024-03-23T02:21:25;17.00;;;10.18;;
79646;SDS011;69119;41.718;21.786;2024-03-23T02:23:52;16.58;;;8.90;;
79646;SDS011;69119;41.718;21.786;2024-03-23T02:26:18;15.95;;;9.77;;
79646;SDS011;69119;41.718;21.786;2024-03-23T02:28:44;19.10;;;10.63;;
79646;SDS011;69119;41.718;21.786;2024-03-23T02:31:10;18.48;;;10.45;;
79646;SDS011;69119;41.718;21.786;2024-03-23T02:33:36;18.83;;;9.70;;
79646;SDS011;69119;41.718;21.786;2024-03-23T02:36:03;21.25;;;12.35;;
79646;SDS011;69119;41.718;21.786;2024-03-23T02:38:29;18.10;;;10.68;;
79646;SDS011;69119;41.718;21.786;2024-03-23T02:41:00;18.50;;;10.38;;
79646;SDS011;69119;41.718;21.786;2024-03-23T02:43:26;18.92;;;11.30;;
79646;SDS011;69119;41.718;21.786;2024-03-23T02:45:52;17.58;;;10.35;;
79646;SDS011;69119;41.718;21.786;2024-03-23T02:48:18;16.60;;;9.63;;
79646;SDS011;69119;41.718;21.786;2024-03-23T02:50:45;14.45;;;9.32;;
79646;SDS011;69119;41.718;21.786;2024-03-23T02:53:11;17.65;;;10.48;;
79646;SDS011;69119;41.718;21.786;2024-03-23T02:55:37;18.27;;;11.10;;
79646;SDS011;69119;41.718;21.786;2024-03-23T02:58:03;18.33;;;10.43;;
79646;SDS011;69119;41.718;21.786;2024-03-23T03:00:29;17.38;;;10.57;;
79646;SDS011;69119;41.718;21.786;2024-03-23T03:02:55;17.30;;;10.02;;
79646;SDS011;69119;41.718;21.786;2024-03-23T03:05:21;18.80;;;10.25;;
79646;SDS011;69119;41.718;21.786;2024-03-23T03:07:47;14.82;;;9.98;;
79646;SDS011;69119;41.718;21.786;2024-03-23T03:10:14;18.73;;;9.65;;
79646;SDS011;69119;41.718;21.786;2024-03-23T03:12:40;13.45;;;6.78;;
79646;SDS011;69119;41.718;21.786;2024-03-23T03:15:07;16.02;;;8.77;;
79646;SDS011;69119;41.718;21.786;2024-03-23T03:17:34;17.52;;;10.25;;
79646;SDS011;69119;41.718;21.786;2024-03-23T03:20:00;18.27;;;10.50;;
79646;SDS011;69119;41.718;21.786;2024-03-23T03:22:27;17.35;;;10.43;;
79646;SDS011;69119;41.718;21.786;2024-03-23T03:24:53;18.08;;;9.82;;
79646;SDS011;69119;41.718;21.786;2024-03-23T03:27:19;19.30;;;9.25;;
79646;SDS011;69119;41.718;21.786;2024-03-23T03:29:47;18.45;;;9.75;;
79646;SDS011;69119;41.718;21.786;2024-03-23T03:32:13;19.75;;;9.88;;
79646;SDS011;69119;41.718;21.786;2024-03-23T03:34:39;18.65;;;9.38;;
79646;SDS011;69119;41.718;21.786;2024-03-23T03:37:05;26.27;;;11.25;;
79646;SDS011;69119;41.718;21.786;2024-03-23T03:39:31;16.85;;;9.55;;
79646;SDS011;69119;41.718;21.786;2024-03-23T03:41:57;18.90;;;11.07;;
79646;SDS011;69119;41.718;21.786;2024-03-23T03:44:25;14.52;;;7.50;;
79646;SDS011;69119;41.718;21.786;2024-03-23T03:46:51;21.45;;;12.05;;
79646;SDS011;69119;41.718;21.786;2024-03-23T03:49:17;15.23;;;8.10;;
79646;SDS011;69119;41.718;21.786;2024-03-23T03:51:43;20.00;;;10.18;;
79646;SDS011;69119;41.718;21.786;2024-03-23T03:54:09;17.25;;;9.98;;
79646;SDS011;69119;41.718;21.786;2024-03-23T03:56:36;17.90;;;10.60;;
79646;SDS011;69119;41.718;21.786;2024-03-23T03:59:02;17.00;;;10.27;;
79646;SDS011;69119;41.718;21.786;2024-03-23T04:01:28;18.42;;;9.82;;
79646;SDS011;69119;41.718;21.786;2024-03-23T04:03:54;19.42;;;9.85;;
79646;SDS011;69119;41.718;21.786;2024-03-23T04:06:20;19.58;;;9.23;;
79646;SDS011;69119;41.718;21.786;2024-03-23T04:08:46;18.27;;;9.05;;
79646;SDS011;69119;41.718;21.786;2024-03-23T04:11:12;20.52;;;10.40;;
79646;SDS011;69119;41.718;21.786;2024-03-23T04:13:38;18.90;;;10.27;;
79646;SDS011;69119;41.718;21.786;2024-03-23T04:16:06;31.30;;;20.98;;
79646;SDS011;69119;41.718;21.786;2024-03-23T04:18:32;28.13;;;16.00;;
79646;SDS011;69119;41.718;21.786;2024-03-23T04:20:58;40.70;;;27.13;;
79646;SDS011;69119;41.718;21.786;2024-03-23T04:23:24;21.35;;;12.13;;
79646;SDS011;69119;41.718;21.786;2024-03-23T04:25:50;15.93;;;7.72;;
79646;SDS011;69119;41.718;21.786;2024-03-23T04:28:18;17.23;;;10.63;;
79646;SDS011;69119;41.718;21.786;2024-03-23T04:30:44;19.98;;;9.95;;
79646;SDS011;69119;41.718;21.786;2024-03-23T04:33:10;18.27;;;10.25;;
79646;SDS011;69119;41.718;21.786;2024-03-23T04:35:36;17.23;;;9.45;;
79646;SDS011;69119;41.718;21.786;2024-03-23T04:38:02;16.63;;;10.07;;
79646;SDS011;69119;41.718;21.786;2024-03-23T04:40:29;17.00;;;9.93;;
79646;SDS011;69119;41.718;21.786;2024-03-23T04:42:55;15.93;;;8.55;;
79646;SDS011;69119;41.718;21.786;2024-03-23T04:45:21;21.20;;;10.50;;
79646;SDS011;69119;41.718;21.786;2024-03-23T04:47:47;20.85;;;10.40;;
79646;SDS011;69119;41.718;21.786;2024-03-23T04:50:13;18.55;;;11.05;;
79646;SDS011;69119;41.718;21.786;2024-03-23T04:52:39;22.27;;;9.48;;
79646;SDS011;69119;41.718;21.786;2024-03-23T04:55:05;15.90;;;9.63;;
79646;SDS011;69119;41.718;21.786;2024-03-23T04:57:31;20.80;;;9.48;;
79646;SDS011;69119;41.718;21.786;2024-03-23T04:59:57;16.00;;;9.30;;
79646;SDS011;69119;41.718;21.786;2024-03-23T05:02:23;17.95;;;8.68;;
79646;SDS011;69119;41.718;21.786;2024-03-23T05:04:50;17.00;;;9.18;;
79646;SDS011;69119;41.718;21.786;2024-03-23T05:07:16;17.25;;;9.73;;
79646;SDS011;69119;41.718;21.786;2024-03-23T05:09:42;25.92;;;12.25;;
79646;SDS011;69119;41.718;21.786;2024-03-23T05:12:08;25.08;;;13.88;;
79646;SDS011;69119;41.718;21.786;2024-03-23T05:14:34;23.17;;;11.77;;
79646;SDS011;69119;41.718;21.786;2024-03-23T05:17:01;15.55;;;9.65;;
79646;SDS011;69119;41.718;21.786;2024-03-23T05:19:27;20.92;;;9.20;;
79646;SDS011;69119;41.718;21.786;2024-03-23T05:21:54;16.05;;;9.32;;
79646;SDS011;69119;41.718;21.786;2024-03-23T05:24:20;17.17;;;8.02;;
79646;SDS011;69119;41.718;21.786;2024-03-23T05:26:46;18.02;;;8.82;;
79646;SDS011;69119;41.718;21.786;2024-03-23T05:29:12;13.27;;;8.20;;
79646;SDS011;69119;41.718;21.786;2024-03-23T05:31:38;15.63;;;8.27;;
79646;SDS011;69119;41.718;21.786;2024-03-23T05:34:06;13.68;;;8.35;;
79646;SDS011;69119;41.718;21.786;2024-03-23T05:36:32;13.15;;;7.57;;
79646;SDS011;69119;41.718;21.786;2024-03-23T05:38:58;13.88;;;8.65;;
79646;SDS011;69119;41.718;21.786;2024-03-23T05:41:24;17.30;;;7.85;;
79646;SDS011;69119;41.718;21.786;2024-03-23T05:43:50;15.02;;;9.23;;
79646;SDS011;69119;41.718;21.786;2024-03-23T05:46:17;13.20;;;8.50;;
79646;SDS011;69119;41.718;21.786;2024-03-23T05:48:43;14.57;;;7.65;;
79646;SDS011;69119;41.718;21.786;2024-03-23T05:51:09;14.50;;;8.15;;
79646;SDS011;69119;41.718;21.786;2024-03-23T05:53:37;13.52;;;7.53;;
79646;SDS011;69119;41.718;21.786;2024-03-23T05:56:03;13.38;;;6.85;;
79646;SDS011;69119;41.718;21.786;2024-03-23T06:05:48;14.02;;;7.38;;
79646;SDS011;69119;41.718;21.786;2024-03-23T06:08:14;15.32;;;8.23;;
79646;SDS011;69119;41.718;21.786;2024-03-23T06:10:40;11.68;;;6.15;;
79646;SDS011;69119;41.718;21.786;2024-03-23T06:13:06;14.57;;;7.18;;
79646;SDS011;69119;41.718;21.786;2024-03-23T06:15:33;18.13;;;9.18;;
79646;SDS011;69119;41.718;21.786;2024-03-23T06:18:02;15.00;;;8.45;;
79646;SDS011;69119;41.718;21.786;2024-03-23T06:20:29;15.73;;;7.97;;
79646;SDS011;69119;41.718;21.786;2024-03-23T06:22:56;15.68;;;8.50;;
79646;SDS011;69119;41.718;21.786;2024-03-23T06:25:22;15.13;;;8.15;;
79646;SDS011;69119;41.718;21.786;2024-03-23T06:27:48;14.00;;;8.48;;
79646;SDS011;69119;41.718;21.786;2024-03-23T06:30:14;12.95;;;7.32;;
79646;SDS011;69119;41.718;21.786;2024-03-23T06:32:40;14.98;;;8.40;;
79646;SDS011;69119;41.718;21.786;2024-03-23T06:35:06;21.35;;;9.30;;
79646;SDS011;69119;41.718;21.786;2024-03-23T06:37:36;22.42;;;10.10;;
79646;SDS011;69119;41.718;21.786;2024-03-23T06:40:03;14.38;;;7.50;;
79646;SDS011;69119;41.718;21.786;2024-03-23T06:42:33;16.15;;;8.23;;
79646;SDS011;69119;41.718;21.786;2024-03-23T06:44:59;15.88;;;9.15;;
79646;SDS011;69119;41.718;21.786;2024-03-23T06:47:25;16.73;;;9.40;;
79646;SDS011;69119;41.718;21.786;2024-03-23T06:49:51;16.83;;;8.27;;
79646;SDS011;69119;41.718;21.786;2024-03-23T06:52:17;16.60;;;9.98;;
79646;SDS011;69119;41.718;21.786;2024-03-23T06:54:44;19.25;;;11.10;;
79646;SDS011;69119;41.718;21.786;2024-03-23T06:57:10;17.92;;;10.40;;
79646;SDS011;69119;41.718;21.786;2024-03-23T06:59:37;17.95;;;9.15;;
79646;SDS011;69119;41.718;21.786;2024-03-23T07:02:04;15.82;;;9.73;;
79646;SDS011;69119;41.718;21.786;2024-03-23T07:06:56;20.40;;;11.18;;
79646;SDS011;69119;41.718;21.786;2024-03-23T07:09:22;22.25;;;11.73;;
79646;SDS011;69119;41.718;21.786;2024-03-23T07:11:51;19.00;;;10.52;;
79646;SDS011;69119;41.718;21.786;2024-03-23T07:14:17;16.63;;;10.60;;
79646;SDS011;69119;41.718;21.786;2024-03-23T07:16:43;14.00;;;7.07;;
79646;SDS011;69119;41.718;21.786;2024-03-23T07:19:09;17.98;;;9.35;;
79646;SDS011;69119;41.718;21.786;2024-03-23T07:21:35;16.10;;;9.32;;
79646;SDS011;69119;41.718;21.786;2024-03-23T07:24:01;14.50;;;9.15;;
79646;SDS011;69119;41.718;21.786;2024-03-23T07:26:27;15.38;;;8.45;;
79646;SDS011;69119;41.718;21.786;2024-03-23T07:28:53;16.77;;;9.30;;
79646;SDS011;69119;41.718;21.786;2024-03-23T07:31:19;15.63;;;8.60;;
79646;SDS011;69119;41.718;21.786;2024-03-23T07:33:47;13.73;;;8.70;;
79646;SDS011;69119;41.718;21.786;2024-03-23T07:36:13;17.08;;;9.02;;
79646;SDS011;69119;41.718;21.786;2024-03-23T07:38:42;18.65;;;10.40;;
79646;SDS011;69119;41.718;21.786;2024-03-23T07:41:13;14.48;;;9.07;;
79646;SDS011;69119;41.718;21.786;2024-03-23T07:43:42;16.67;;;9.52;;
79646;SDS011;69119;41.718;21.786;2024-03-23T07:46:08;17.40;;;8.55;;
79646;SDS011;69119;41.718;21.786;2024-03-23T07:48:34;17.83;;;10.63;;
79646;SDS011;69119;41.718;21.786;2024-03-23T07:51:06;13.77;;;8.95;;
79646;SDS011;69119;41.718;21.786;2024-03-23T07:53:33;14.30;;;9.38;;
79646;SDS011;69119;41.718;21.786;2024-03-23T07:56:01;15.55;;;9.48;;
79646;SDS011;69119;41.718;21.786;2024-03-23T07:58:27;12.25;;;8.32;;
79646;SDS011;69119;41.718;21.786;2024-03-23T08:00:54;16.50;;;10.07;;
79646;SDS011;69119;41.718;21.786;2024-03-23T08:03:20;17.92;;;9.90;;
79646;SDS011;69119;41.718;21.786;2024-03-23T08:05:46;17.58;;;10.35;;
79646;SDS011;69119;41.718;21.786;2024-03-23T08:08:12;19.23;;;11.70;;
79646;SDS011;69119;41.718;21.786;2024-03-23T08:13:04;13.07;;;7.72;;
79646;SDS011;69119;41.718;21.786;2024-03-23T08:15:31;13.07;;;7.68;;
79646;SDS011;69119;41.718;21.786;2024-03-23T08:17:58;14.05;;;7.40;;
79646;SDS011;69119;41.718;21.786;2024-03-23T08:22:50;12.05;;;7.82;;
79646;SDS011;69119;41.718;21.786;2024-03-23T08:25:16;14.27;;;8.88;;
79646;SDS011;69119;41.718;21.786;2024-03-23T08:27:44;12.50;;;6.95;;
79646;SDS011;69119;41.718;21.786;2024-03-23T08:30:10;11.27;;;6.35;;
79646;SDS011;69119;41.718;21.786;2024-03-23T08:32:36;16.40;;;10.48;;
79646;SDS011;69119;41.718;21.786;2024-03-23T08:37:28;9.65;;;5.03;;
79646;SDS011;69119;41.718;21.786;2024-03-23T08:39:54;9.20;;;5.18;;
79646;SDS011;69119;41.718;21.786;2024-03-23T08:42:20;12.20;;;4.80;;
79646;SDS011;69119;41.718;21.786;2024-03-23T08:44:47;12.10;;;6.57;;
79646;SDS011;69119;41.718;21.786;2024-03-23T08:47:16;11.50;;;5.97;;
79646;SDS011;69119;41.718;21.786;2024-03-23T08:49:42;11.43;;;6.18;;
79646;SDS011;69119;41.718;21.786;2024-03-23T08:54:34;10.85;;;4.78;;
79646;SDS011;69119;41.718;21.786;2024-03-23T08:57:00;12.23;;;5.55;;
79646;SDS011;69119;41.718;21.786;2024-03-23T09:01:52;10.82;;;6.70;;
79646;SDS011;69119;41.718;21.786;2024-03-23T09:04:19;10.40;;;5.50;;
79646;SDS011;69119;41.718;21.786;2024-03-23T09:06:45;9.98;;;5.72;;
79646;SDS011;69119;41.718;21.786;2024-03-23T09:11:37;12.68;;;6.03;;
79646;SDS011;69119;41.718;21.786;2024-03-23T09:14:03;10.50;;;5.43;;
79646;SDS011;69119;41.718;21.786;2024-03-23T09:16:29;9.10;;;5.25;;
79646;SDS011;69119;41.718;21.786;2024-03-23T09:21:21;11.32;;;6.53;;
79646;SDS011;69119;41.718;21.786;2024-03-23T09:26:14;9.88;;;5.60;;
79646;SDS011;69119;41.718;21.786;2024-03-23T09:31:06;12.55;;;5.57;;
79646;SDS011;69119;41.718;21.786;2024-03-23T09:33:33;10.85;;;5.32;;
79646;SDS011;69119;41.718;21.786;2024-03-23T09:36:06;13.88;;;5.38;;
79646;SDS011;69119;41.718;21.786;2024-03-23T09:38:32;12.13;;;6.15;;
79646;SDS011;69119;41.718;21.786;2024-03-23T09:40:58;10.75;;;6.53;;
79646;SDS011;69119;41.718;21.786;2024-03-23T09:43:25;10.82;;;6.00;;
79646;SDS011;69119;41.718;21.786;2024-03-23T09:48:17;10.90;;;5.57;;
79646;SDS011;69119;41.718;21.786;2024-03-23T09:50:43;8.68;;;4.32;;
79646;SDS011;69119;41.718;21.786;2024-03-23T09:53:10;9.90;;;6.20;;
79646;SDS011;69119;41.718;21.786;2024-03-23T09:55:37;11.23;;;5.10;;
79646;SDS011;69119;41.718;21.786;2024-03-23T09:58:04;10.00;;;5.60;;
79646;SDS011;69119;41.718;21.786;2024-03-23T10:00:30;11.48;;;6.13;;
79646;SDS011;69119;41.718;21.786;2024-03-23T10:02:56;12.02;;;5.13;;
79646;SDS011;69119;41.718;21.786;2024-03-23T10:05:29;10.30;;;6.25;;
79646;SDS011;69119;41.718;21.786;2024-03-23T10:10:43;10.90;;;5.40;;
79646;SDS011;69119;41.718;21.786;2024-03-23T10:13:09;6.57;;;2.72;;
79646;SDS011;69119;41.718;21.786;2024-03-23T10:15:38;10.30;;;5.13;;
79646;SDS011;69119;41.718;21.786;2024-03-23T10:18:19;10.93;;;5.88;;
79646;SDS011;69119;41.718;21.786;2024-03-23T10:23:19;11.70;;;6.15;;
79646;SDS011;69119;41.718;21.786;2024-03-23T10:25:45;11.98;;;6.38;;
79646;SDS011;69119;41.718;21.786;2024-03-23T10:28:11;11.73;;;5.88;;
79646;SDS011;69119;41.718;21.786;2024-03-23T10:30:37;11.45;;;7.10;;
79646;SDS011;69119;41.718;21.786;2024-03-23T10:35:29;10.65;;;4.60;;
79646;SDS011;69119;41.718;21.786;2024-03-23T10:37:55;11.73;;;5.82;;
79646;SDS011;69119;41.718;21.786;2024-03-23T10:40:22;8.45;;;5.22;;
79646;SDS011;69119;41.718;21.786;2024-03-23T10:42:49;15.73;;;6.35;;
79646;SDS011;69119;41.718;21.786;2024-03-23T10:45:15;10.13;;;5.35;;
79646;SDS011;69119;41.718;21.786;2024-03-23T10:47:41;12.48;;;5.68;;
79646;SDS011;69119;41.718;21.786;2024-03-23T10:52:33;10.32;;;5.53;;
79646;SDS011;69119;41.718;21.786;2024-03-23T10:55:00;8.48;;;4.90;;
79646;SDS011;69119;41.718;21.786;2024-03-23T10:57:40;10.65;;;5.65;;
79646;SDS011;69119;41.718;21.786;2024-03-23T11:00:07;12.80;;;5.95;;
79646;SDS011;69119;41.718;21.786;2024-03-23T11:02:34;8.50;;;4.85;;
79646;SDS011;69119;41.718;21.786;2024-03-23T11:14:51;7.30;;;4.28;;
79646;SDS011;69119;41.718;21.786;2024-03-23T11:17:18;8.27;;;4.47;;
79646;SDS011;69119;41.718;21.786;2024-03-23T11:19:46;7.82;;;4.40;;
79646;SDS011;69119;41.718;21.786;2024-03-23T11:22:37;11.63;;;5.50;;
79646;SDS011;69119;41.718;21.786;2024-03-23T11:25:11;11.13;;;4.65;;
79646;SDS011;69119;41.718;21.786;2024-03-23T11:27:38;8.88;;;5.07;;
79646;SDS011;69119;41.718;21.786;2024-03-23T11:32:30;10.77;;;4.35;;
79646;SDS011;69119;41.718;21.786;2024-03-23T11:34:56;8.52;;;4.03;;
79646;SDS011;69119;41.718;21.786;2024-03-23T11:37:22;9.38;;;5.00;;
79646;SDS011;69119;41.718;21.786;2024-03-23T11:42:14;10.07;;;5.20;;
79646;SDS011;69119;41.718;21.786;2024-03-23T11:47:07;10.20;;;4.53;;
79646;SDS011;69119;41.718;21.786;2024-03-23T11:49:35;8.65;;;3.83;;
79646;SDS011;69119;41.718;21.786;2024-03-23T11:52:06;9.32;;;3.65;;
79646;SDS011;69119;41.718;21.786;2024-03-23T11:54:32;12.57;;;5.85;;
79646;SDS011;69119;41.718;21.786;2024-03-23T11:57:02;10.07;;;4.53;;
79646;SDS011;69119;41.718;21.786;2024-03-23T11:59:39;7.28;;;3.65;;
79646;SDS011;69119;41.718;21.786;2024-03-23T12:02:09;8.55;;;4.72;;
79646;SDS011;69119;41.718;21.786;2024-03-23T12:04:35;8.27;;;4.32;;
79646;SDS011;69119;41.718;21.786;2024-03-23T12:09:28;9.15;;;4.03;;
79646;SDS011;69119;41.718;21.786;2024-03-23T12:11:54;11.68;;;5.80;;
79646;SDS011;69119;41.718;21.786;2024-03-23T12:14:20;10.73;;;4.38;;
79646;SDS011;69119;41.718;21.786;2024-03-23T12:16:46;8.85;;;4.25;;
79646;SDS011;69119;41.718;21.786;2024-03-23T12:19:12;7.70;;;3.47;;
79646;SDS011;69119;41.718;21.786;2024-03-23T12:21:38;8.77;;;4.60;;
79646;SDS011;69119;41.718;21.786;2024-03-23T12:24:04;6.25;;;3.13;;
79646;SDS011;69119;41.718;21.786;2024-03-23T12:26:31;7.85;;;3.10;;
79646;SDS011;69119;41.718;21.786;2024-03-23T12:28:57;7.35;;;3.33;;
79646;SDS011;69119;41.718;21.786;2024-03-23T12:31:24;7.28;;;3.53;;
79646;SDS011;69119;41.718;21.786;2024-03-23T12:33:50;6.63;;;3.20;;
79646;SDS011;69119;41.718;21.786;2024-03-23T12:36:17;7.75;;;3.28;;
79646;SDS011;69119;41.718;21.786;2024-03-23T12:38:43;8.02;;;3.28;;
79646;SDS011;69119;41.718;21.786;2024-03-23T12:41:09;7.72;;;4.30;;
79646;SDS011;69119;41.718;21.786;2024-03-23T12:43:36;8.48;;;4.03;;
79646;SDS011;69119;41.718;21.786;2024-03-23T12:46:02;7.32;;;3.75;;
79646;SDS011;69119;41.718;21.786;2024-03-23T12:48:29;9.75;;;3.17;;
79646;SDS011;69119;41.718;21.786;2024-03-23T12:50:55;10.48;;;4.18;;
79646;SDS011;69119;41.718;21.786;2024-03-23T12:53:21;9.32;;;2.85;;
79646;SDS011;69119;41.718;21.786;2024-03-23T12:55:47;6.88;;;2.75;;
79646;SDS011;69119;41.718;21.786;2024-03-23T12:58:13;8.07;;;3.42;;
79646;SDS011;69119;41.718;21.786;2024-03-23T13:00:39;8.48;;;3.20;;
79646;SDS011;69119;41.718;21.786;2024-03-23T13:03:05;6.90;;;3.20;;
79646;SDS011;69119;41.718;21.786;2024-03-23T13:05:32;6.85;;;3.10;;
79646;SDS011;69119;41.718;21.786;2024-03-23T13:07:58;7.15;;;3.40;;
79646;SDS011;69119;41.718;21.786;2024-03-23T13:10:24;8.25;;;3.42;;
79646;SDS011;69119;41.718;21.786;2024-03-23T13:12:50;8.30;;;3.47;;
79646;SDS011;69119;41.718;21.786;2024-03-23T13:15:16;8.30;;;3.22;;
79646;SDS011;69119;41.718;21.786;2024-03-23T13:17:44;11.10;;;4.28;;
79646;SDS011;69119;41.718;21.786;2024-03-23T13:20:10;10.05;;;4.32;;
79646;SDS011;69119;41.718;21.786;2024-03-23T13:22:40;8.23;;;3.72;;
79646;SDS011;69119;41.718;21.786;2024-03-23T13:25:06;7.25;;;3.20;;
79646;SDS011;69119;41.718;21.786;2024-03-23T13:29:58;6.85;;;3.15;;
79646;SDS011;69119;41.718;21.786;2024-03-23T13:32:24;8.90;;;4.47;;
79646;SDS011;69119;41.718;21.786;2024-03-23T13:34:50;7.95;;;3.88;;
79646;SDS011;69119;41.718;21.786;2024-03-23T13:37:16;7.93;;;3.20;;
79646;SDS011;69119;41.718;21.786;2024-03-23T13:39:42;9.20;;;4.15;;
79646;SDS011;69119;41.718;21.786;2024-03-23T13:42:09;8.35;;;3.80;;
79646;SDS011;69119;41.718;21.786;2024-03-23T13:44:35;8.38;;;3.58;;
79646;SDS011;69119;41.718;21.786;2024-03-23T13:47:01;9.60;;;4.15;;
79646;SDS011;69119;41.718;21.786;2024-03-23T13:49:29;12.40;;;5.30;;
79646;SDS011;69119;41.718;21.786;2024-03-23T13:51:59;7.10;;;3.15;;
79646;SDS011;69119;41.718;21.786;2024-03-23T13:54:25;8.02;;;3.63;;
79646;SDS011;69119;41.718;21.786;2024-03-23T13:56:52;9.95;;;4.50;;
79646;SDS011;69119;41.718;21.786;2024-03-23T13:59:18;7.80;;;3.15;;
79646;SDS011;69119;41.718;21.786;2024-03-23T14:04:13;6.70;;;3.58;;
79646;SDS011;69119;41.718;21.786;2024-03-23T14:06:41;6.63;;;2.92;;
79646;SDS011;69119;41.718;21.786;2024-03-23T14:09:10;6.25;;;2.78;;
79646;SDS011;69119;41.718;21.786;2024-03-23T14:11:36;7.57;;;3.47;;
79646;SDS011;69119;41.718;21.786;2024-03-23T14:16:29;8.90;;;4.18;;
79646;SDS011;69119;41.718;21.786;2024-03-23T14:18:55;6.75;;;3.40;;
79646;SDS011;69119;41.718;21.786;2024-03-23T14:21:21;7.20;;;3.40;;
79646;SDS011;69119;41.718;21.786;2024-03-23T14:23:47;8.18;;;3.22;;
79646;SDS011;69119;41.718;21.786;2024-03-23T14:26:13;6.35;;;3.15;;
79646;SDS011;69119;41.718;21.786;2024-03-23T14:28:39;7.93;;;3.30;;
79646;SDS011;69119;41.718;21.786;2024-03-23T14:31:05;6.70;;;3.40;;
79646;SDS011;69119;41.718;21.786;2024-03-23T14:33:40;7.00;;;3.20;;
79646;SDS011;69119;41.718;21.786;2024-03-23T14:36:11;7.03;;;3.40;;
79646;SDS011;69119;41.718;21.786;2024-03-23T14:38:37;7.05;;;3.20;;
79646;SDS011;69119;41.718;21.786;2024-03-23T14:41:03;7.57;;;3.00;;
79646;SDS011;69119;41.718;21.786;2024-03-23T14:43:29;7.78;;;3.38;;
79646;SDS011;69119;41.718;21.786;2024-03-23T14:48:24;6.95;;;3.65;;
79646;SDS011;69119;41.718;21.786;2024-03-23T14:50:55;9.20;;;3.90;;
79646;SDS011;69119;41.718;21.786;2024-03-23T14:53:21;14.70;;;4.43;;
79646;SDS011;69119;41.718;21.786;2024-03-23T14:55:47;8.20;;;3.83;;
79646;SDS011;69119;41.718;21.786;2024-03-23T14:58:14;7.70;;;3.20;;
79646;SDS011;69119;41.718;21.786;2024-03-23T15:00:40;8.60;;;4.05;;
79646;SDS011;69119;41.718;21.786;2024-03-23T15:03:06;7.60;;;3.22;;
79646;SDS011;69119;41.718;21.786;2024-03-23T15:05:32;7.25;;;3.22;;
79646;SDS011;69119;41.718;21.786;2024-03-23T15:07:58;7.05;;;3.70;;
79646;SDS011;69119;41.718;21.786;2024-03-23T15:10:24;11.88;;;4.55;;
79646;SDS011;69119;41.718;21.786;2024-03-23T15:12:50;12.95;;;5.68;;
79646;SDS011;69119;41.718;21.786;2024-03-23T15:15:16;15.05;;;6.18;;
79646;SDS011;69119;41.718;21.786;2024-03-23T15:17:42;9.10;;;3.72;;
79646;SDS011;69119;41.718;21.786;2024-03-23T15:20:10;15.02;;;6.45;;
79646;SDS011;69119;41.718;21.786;2024-03-23T15:22:37;15.07;;;7.50;;
79646;SDS011;69119;41.718;21.786;2024-03-23T15:25:03;14.90;;;6.10;;
79646;SDS011;69119;41.718;21.786;2024-03-23T15:27:29;17.35;;;9.02;;
79646;SDS011;69119;41.718;21.786;2024-03-23T15:29:56;12.20;;;6.82;;
79646;SDS011;69119;41.718;21.786;2024-03-23T15:32:22;12.05;;;5.72;;
79646;SDS011;69119;41.718;21.786;2024-03-23T15:34:48;10.55;;;4.40;;
79646;SDS011;69119;41.718;21.786;2024-03-23T15:37:14;8.57;;;3.88;;
79646;SDS011;69119;41.718;21.786;2024-03-23T15:39:41;10.82;;;4.45;;
79646;SDS011;69119;41.718;21.786;2024-03-23T15:42:07;9.30;;;5.00;;
79646;SDS011;69119;41.718;21.786;2024-03-23T15:44:33;10.93;;;6.00;;
79646;SDS011;69119;41.718;21.786;2024-03-23T15:46:59;7.43;;;3.55;;
79646;SDS011;69119;41.718;21.786;2024-03-23T15:49:25;11.07;;;5.72;;
79646;SDS011;69119;41.718;21.786;2024-03-23T15:51:51;13.05;;;7.47;;
79646;SDS011;69119;41.718;21.786;2024-03-23T15:54:18;11.77;;;5.43;;
79646;SDS011;69119;41.718;21.786;2024-03-23T15:56:45;10.98;;;5.15;;
79646;SDS011;69119;41.718;21.786;2024-03-23T15:59:11;12.95;;;4.88;;
79646;SDS011;69119;41.718;21.786;2024-03-23T16:01:37;14.85;;;6.57;;
79646;SDS011;69119;41.718;21.786;2024-03-23T16:04:03;13.05;;;6.47;;
79646;SDS011;69119;41.718;21.786;2024-03-23T16:06:29;9.98;;;5.45;;
79646;SDS011;69119;41.718;21.786;2024-03-23T16:08:56;11.05;;;5.07;;
79646;SDS011;69119;41.718;21.786;2024-03-23T16:11:22;11.02;;;3.47;;
79646;SDS011;69119;41.718;21.786;2024-03-23T16:13:48;8.57;;;4.00;;
79646;SDS011;69119;41.718;21.786;2024-03-23T16:16:14;7.93;;;3.22;;
79646;SDS011;69119;41.718;21.786;2024-03-23T16:18:41;8.75;;;3.88;;
79646;SDS011;69119;41.718;21.786;2024-03-23T16:21:09;9.32;;;3.95;;
79646;SDS011;69119;41.718;21.786;2024-03-23T16:23:35;8.57;;;3.92;;
79646;SDS011;69119;41.718;21.786;2024-03-23T16:26:06;8.20;;;3.95;;
79646;SDS011;69119;41.718;21.786;2024-03-23T16:28:33;9.43;;;4.50;;
79646;SDS011;69119;41.718;21.786;2024-03-23T16:33:26;10.57;;;4.35;;